createdAt,value
2022-12-09T00:01:09.853Z,95734.84
2022-12-09T00:03:37.019Z,95737.78
2022-12-09T00:06:33.969Z,95741.19
2022-12-09T00:09:01.185Z,95735.50
2022-12-09T00:11:28.079Z,95730.38
2022-12-09T00:13:56.944Z,95738.91
2022-12-09T00:16:25.340Z,95735.88
2022-12-09T00:18:52.945Z,95734.69
2022-12-09T00:21:32.494Z,95742.94
2022-12-09T00:24:02.585Z,95734.84
2022-12-09T00:26:30.220Z,95733.91
2022-12-09T00:28:58.158Z,95735.97
2022-12-09T00:31:33.637Z,95736.28
2022-12-09T00:34:05.498Z,95727.84
2022-12-09T00:36:32.939Z,95729.44
2022-12-09T00:39:00.483Z,95720.16
2022-12-09T00:41:27.866Z,95721.94
2022-12-09T00:43:54.891Z,95708.81
2022-12-09T00:46:21.804Z,95710.06
2022-12-09T00:48:48.859Z,95709.28
2022-12-09T00:51:20.941Z,95707.00
2022-12-09T00:53:48.676Z,95702.09
2022-12-09T00:56:15.989Z,95702.09
2022-12-09T00:58:42.991Z,95700.75
2022-12-09T01:01:09.956Z,95698.47
2022-12-09T01:03:36.783Z,95702.09
2022-12-09T01:06:10.178Z,95699.81
2022-12-09T01:08:39.286Z,95698.28
2022-12-09T01:11:15.041Z,95698.28
2022-12-09T01:13:41.869Z,95696.78
2022-12-09T01:16:20.572Z,95702.16
2022-12-09T01:18:48.773Z,95698.94
2022-12-09T01:21:15.425Z,95701.59
2022-12-09T01:23:42.525Z,95708.59
2022-12-09T01:26:09.799Z,95705.16
2022-12-09T01:28:38.501Z,95710.69
2022-12-09T01:31:11.972Z,95713.59
2022-12-09T01:33:39.960Z,95710.38
2022-12-09T01:36:10.712Z,95712.25
2022-12-09T01:38:37.642Z,95712.06
2022-12-09T01:41:06.074Z,95690.69
2022-12-09T01:43:33.101Z,95694.47
2022-12-09T01:45:59.996Z,95696.47
2022-12-09T01:48:39.546Z,95701.13
2022-12-09T01:51:16.938Z,95696.28
2022-12-09T01:53:47.683Z,95697.91
2022-12-09T01:56:19.899Z,95695.59
2022-12-09T01:58:47.879Z,95703.06
2022-12-09T02:01:17.594Z,95705.13
2022-12-09T02:03:45.650Z,95695.75
2022-12-09T02:06:12.761Z,95707.22
2022-12-09T02:08:40.309Z,95702.66
2022-12-09T02:11:25.537Z,95699.84
2022-12-09T02:14:05.148Z,95691.06
2022-12-09T02:16:46.023Z,95694.16
2022-12-09T02:19:37.309Z,95699.69
2022-12-09T02:22:04.126Z,95698.25
2022-12-09T02:24:30.795Z,95684.38
2022-12-09T02:27:16.515Z,95682.84
2022-12-09T02:30:01.901Z,95680.31
2022-12-09T02:32:38.521Z,95671.31
2022-12-09T02:35:17.431Z,95676.97
2022-12-09T02:38:03.664Z,95676.97
2022-12-09T02:40:44.739Z,95665.72
2022-12-09T02:43:12.891Z,95673.38
2022-12-09T02:45:41.438Z,95662.97
2022-12-09T02:48:11.175Z,95666.53
2022-12-09T02:50:41.695Z,95655.09
2022-12-09T02:53:12.374Z,95649.41
2022-12-09T02:55:42.749Z,95645.28
2022-12-09T02:58:09.946Z,95635.19
2022-12-09T03:00:41.038Z,95632.81
2022-12-09T03:03:14.476Z,95634.34
2022-12-09T03:05:41.432Z,95620.78
2022-12-09T03:08:17.560Z,95616.56
2022-12-09T03:10:56.640Z,95616.84
2022-12-09T03:13:42.505Z,95615.53
2022-12-09T03:16:37.524Z,95614.28
2022-12-09T03:19:14.718Z,95608.78
2022-12-09T03:21:46.263Z,95610.19
2022-12-09T03:24:18.381Z,95607.25
2022-12-09T03:26:45.397Z,95598.41
2022-12-09T03:29:18.286Z,95597.81
2022-12-09T03:31:47.347Z,95591.56
2022-12-09T03:34:22.792Z,95601.09
2022-12-09T03:36:52.047Z,95597.78
2022-12-09T03:39:24.133Z,95590.50
2022-12-09T03:41:55.698Z,95592.38
2022-12-09T03:44:50.557Z,95589.91
2022-12-09T03:47:17.858Z,95585.06
2022-12-09T03:49:44.795Z,95592.53
2022-12-09T03:52:15.542Z,95588.66
2022-12-09T03:54:54.059Z,95590.66
2022-12-09T03:57:21.978Z,95589.94
2022-12-09T03:59:56.020Z,95578.97
2022-12-09T04:02:23.613Z,95584.00
2022-12-09T04:04:51.301Z,95594.38
2022-12-09T04:07:18.315Z,95590.88
2022-12-09T04:09:45.484Z,95594.75
2022-12-09T04:12:12.383Z,95595.00
2022-12-09T04:14:40.882Z,95603.44
2022-12-09T04:17:07.849Z,95609.88
2022-12-09T04:19:35.228Z,95605.84
2022-12-09T04:22:01.975Z,95616.44
2022-12-09T04:24:28.907Z,95604.59
2022-12-09T04:26:55.878Z,95598.69
2022-12-09T04:29:22.569Z,95603.97
2022-12-09T04:31:49.699Z,95607.25
2022-12-09T04:34:16.810Z,95602.41
2022-12-09T04:36:43.753Z,95603.97
2022-12-09T04:39:10.686Z,95599.03
2022-12-09T04:41:37.526Z,95593.50
2022-12-09T04:44:04.486Z,95591.94
2022-12-09T04:46:31.212Z,95599.09
2022-12-09T04:48:58.270Z,95593.81
2022-12-09T04:51:25.303Z,95594.91
2022-12-09T04:53:52.131Z,95587.25
2022-12-09T04:56:21.483Z,95595.47
2022-12-09T04:58:50.128Z,95584.91
2022-12-09T05:01:22.669Z,95595.38
2022-12-09T05:03:54.184Z,95590.06
2022-12-09T05:06:22.260Z,95586.69
2022-12-09T05:08:50.023Z,95602.91
2022-12-09T05:11:19.427Z,95595.69
2022-12-09T05:13:46.597Z,95588.28
2022-12-09T05:16:16.861Z,95593.72
2022-12-09T05:18:45.688Z,95588.28
2022-12-09T05:21:17.214Z,95579.44
2022-12-09T05:23:45.008Z,95583.78
2022-12-09T05:26:15.266Z,95585.41
2022-12-09T05:28:42.495Z,95582.97
2022-12-09T05:31:13.372Z,95572.38
2022-12-09T05:33:44.845Z,95562.66
2022-12-09T05:36:13.767Z,95554.97
2022-12-09T05:38:41.269Z,95557.59
2022-12-09T05:41:08.397Z,95560.25
2022-12-09T05:43:36.998Z,95552.00
2022-12-09T05:46:05.181Z,95548.16
2022-12-09T05:48:32.953Z,95543.78
2022-12-09T05:51:12.391Z,95537.38
2022-12-09T05:53:39.715Z,95532.56
2022-12-09T05:56:06.818Z,95531.13
2022-12-09T05:58:34.916Z,95526.47
2022-12-09T06:01:09.469Z,95522.03
2022-12-09T06:03:37.724Z,95518.53
2022-12-09T06:06:16.334Z,95515.19
2022-12-09T06:08:44.591Z,95511.81
2022-12-09T06:11:17.282Z,95510.56
2022-12-09T06:13:44.732Z,95509.63
2022-12-09T06:16:12.530Z,95518.25
2022-12-09T06:18:40.413Z,95512.94
2022-12-09T06:21:10.050Z,95512.47
2022-12-09T06:23:39.178Z,95509.91
2022-12-09T06:26:06.945Z,95516.06
2022-12-09T06:28:34.674Z,95515.00
2022-12-09T06:31:01.792Z,95517.38
2022-12-09T06:33:53.438Z,95516.81
2022-12-09T06:36:16.176Z,95516.63
2022-12-09T06:38:43.255Z,95521.53
2022-12-09T06:41:13.629Z,95520.41
2022-12-09T06:43:41.327Z,95528.78
2022-12-09T06:46:17.070Z,95515.56
2022-12-09T06:48:44.570Z,95508.22
2022-12-09T06:51:12.128Z,95517.19
2022-12-09T06:53:39.273Z,95516.31
2022-12-09T06:56:12.321Z,95516.63
2022-12-09T06:58:42.232Z,95511.63
2022-12-09T07:01:15.778Z,95525.59
2022-12-09T07:03:44.937Z,95520.28
2022-12-09T07:06:36.508Z,95532.50
2022-12-09T07:09:09.666Z,95525.13
2022-12-09T07:11:37.704Z,95532.59
2022-12-09T07:14:05.495Z,95529.09
2022-12-09T07:16:33.668Z,95529.66
2022-12-09T07:19:01.911Z,95529.88
2022-12-09T07:21:29.802Z,95531.94
2022-12-09T07:24:03.127Z,95536.59
2022-12-09T07:26:33.653Z,95533.75
2022-12-09T07:29:05.302Z,95531.69
2022-12-09T07:31:32.845Z,95531.63
2022-12-09T07:34:00.320Z,95535.88
2022-12-09T07:36:30.491Z,95538.94
2022-12-09T07:38:58.735Z,95546.03
2022-12-09T07:41:26.568Z,95542.72
2022-12-09T07:43:54.385Z,95539.88
2022-12-09T07:46:22.764Z,95538.06
2022-12-09T07:48:51.382Z,95542.16
2022-12-09T07:51:19.249Z,95552.09
2022-12-09T07:53:46.943Z,95548.50
2022-12-09T07:56:15.724Z,95548.22
2022-12-09T07:58:44.743Z,95560.25
2022-12-09T08:01:15.433Z,95564.78
2022-12-09T08:03:43.330Z,95560.91
2022-12-09T08:06:15.482Z,95557.59
2022-12-09T08:08:44.082Z,95558.09
2022-12-09T08:11:20.592Z,95564.72
2022-12-09T08:13:48.174Z,95567.53
2022-12-09T08:16:17.610Z,95567.28
2022-12-09T08:18:45.532Z,95573.13
2022-12-09T08:21:15.362Z,95565.66
2022-12-09T08:23:43.396Z,95570.50
2022-12-09T08:26:11.454Z,95571.00
2022-12-09T08:28:39.432Z,95567.09
2022-12-09T08:31:12.496Z,95566.06
2022-12-09T08:33:39.950Z,95574.00
2022-12-09T08:36:13.739Z,95571.19
2022-12-09T08:38:41.403Z,95568.06
2022-12-09T08:41:20.732Z,95574.13
2022-12-09T08:43:48.444Z,95572.59
2022-12-09T08:46:15.744Z,95565.13
2022-12-09T08:48:43.771Z,95565.88
2022-12-09T08:51:12.369Z,95564.88
2022-12-09T08:53:40.074Z,95567.63
2022-12-09T08:56:11.887Z,95565.06
2022-12-09T08:58:41.135Z,95573.22
2022-12-09T09:01:14.837Z,95565.31
2022-12-09T09:03:41.811Z,95568.84
2022-12-09T09:06:10.825Z,95561.63
2022-12-09T09:08:39.345Z,95561.75
2022-12-09T09:11:12.417Z,95565.25
2022-12-09T09:13:40.922Z,95558.31
2022-12-09T09:16:14.205Z,95561.06
2022-12-09T09:18:41.314Z,95566.41
2022-12-09T09:21:09.795Z,95556.25
2022-12-09T09:23:36.845Z,95559.75
2022-12-09T09:26:04.166Z,95564.50
2022-12-09T09:28:31.968Z,95567.34
2022-12-09T09:31:00.816Z,95561.09
2022-12-09T09:33:28.312Z,95564.88
2022-12-09T09:36:05.531Z,95562.59
2022-12-09T09:38:35.980Z,95564.88
2022-12-09T09:41:15.486Z,95573.59
2022-12-09T09:43:44.542Z,95562.97
2022-12-09T09:46:20.732Z,95553.34
2022-12-09T09:48:48.640Z,95552.22
2022-12-09T09:51:18.451Z,95550.75
2022-12-09T09:53:48.632Z,95541.66
2022-12-09T09:56:30.136Z,95540.91
2022-12-09T09:59:16.012Z,95542.16
2022-12-09T10:01:48.891Z,95540.84
2022-12-09T10:04:15.833Z,95545.06
2022-12-09T10:06:43.369Z,95553.97
2022-12-09T10:09:30.059Z,95548.19
2022-12-09T10:12:15.357Z,95569.97
2022-12-09T10:15:02.810Z,95565.88
2022-12-09T10:18:07.304Z,95585.56
2022-12-09T10:20:35.019Z,95603.34
2022-12-09T10:23:11.036Z,95591.94
2022-12-09T10:25:45.519Z,95604.66
2022-12-09T10:28:20.106Z,95612.41
2022-12-09T10:30:47.980Z,95614.84
2022-12-09T10:33:16.719Z,95630.97
2022-12-09T10:35:44.161Z,95632.38
2022-12-09T10:38:14.074Z,95632.38
2022-12-09T10:40:47.451Z,95629.47
2022-12-09T10:43:37.480Z,95642.53
2022-12-09T10:46:23.081Z,95661.50
2022-12-09T10:48:50.510Z,95655.97
2022-12-09T10:51:20.853Z,95666.97
2022-12-09T10:53:51.658Z,95668.78
2022-12-09T10:56:23.676Z,95665.94
2022-12-09T10:59:08.059Z,95675.97
2022-12-09T11:01:58.878Z,95668.78
2022-12-09T11:04:30.766Z,95664.00
2022-12-09T11:07:14.020Z,95656.78
2022-12-09T11:09:47.360Z,95655.88
2022-12-09T11:12:27.398Z,95662.16
2022-12-09T11:15:06.177Z,95649.84
2022-12-09T11:17:37.041Z,95647.31
2022-12-09T11:20:19.531Z,95651.03
2022-12-09T11:22:59.899Z,95645.81
2022-12-09T11:25:30.386Z,95650.09
2022-12-09T11:28:15.801Z,95647.28
2022-12-09T11:31:12.120Z,95649.19
2022-12-09T11:33:48.243Z,95641.47
2022-12-09T11:36:29.876Z,95635.34
2022-12-09T11:39:19.356Z,95632.66
2022-12-09T11:42:16.457Z,95650.78
2022-12-09T11:45:25.421Z,95657.22
2022-12-09T11:50:42.770Z,95669.91
2022-12-09T11:53:12.557Z,95704.44
2022-12-09T11:55:46.687Z,95725.31
2022-12-09T11:58:25.864Z,95743.50
2022-12-09T12:00:59.912Z,95791.91
2022-12-09T12:03:47.307Z,95799.50
2022-12-09T12:06:21.816Z,95825.41
2022-12-09T12:08:58.099Z,95823.53
2022-12-09T12:11:45.399Z,95789.19
2022-12-09T12:14:17.023Z,95800.28
2022-12-09T12:17:16.353Z,95804.94
2022-12-09T12:19:46.403Z,95817.69
2022-12-09T12:22:31.834Z,95827.47
2022-12-09T12:25:23.661Z,95825.81
2022-12-09T12:27:59.336Z,95825.81
2022-12-09T12:31:04.512Z,95834.06
2022-12-09T12:34:07.793Z,95827.25
2022-12-09T12:36:44.288Z,95791.78
2022-12-09T12:39:35.634Z,95791.75
2022-12-09T12:42:27.158Z,95782.00
2022-12-09T12:45:15.397Z,95786.72
2022-12-09T12:48:07.894Z,95811.66
2022-12-09T12:50:53.044Z,95818.59
2022-12-09T12:53:39.286Z,95837.22
2022-12-09T12:56:11.711Z,95828.81
2022-12-09T12:59:15.913Z,95863.50
2022-12-09T13:01:56.493Z,95857.97
2022-12-09T13:04:29.352Z,95814.66
2022-12-09T13:07:15.088Z,95796.16
2022-12-09T13:09:47.835Z,95787.31
2022-12-09T13:12:44.039Z,95801.28
2022-12-09T13:15:15.051Z,95777.16
2022-12-09T13:17:43.377Z,95775.34
2022-12-09T13:20:20.710Z,95748.75
2022-12-09T13:22:55.657Z,95739.84
2022-12-09T13:25:31.706Z,95735.19
2022-12-09T13:28:09.082Z,95742.03
2022-12-09T13:30:42.809Z,95732.25
2022-12-09T13:33:16.848Z,95735.94
2022-12-09T13:35:50.159Z,95743.66
2022-12-09T13:38:43.367Z,95743.94
2022-12-09T13:41:31.709Z,95739.81
2022-12-09T13:44:11.574Z,95742.75
2022-12-09T13:46:38.833Z,95737.38
2022-12-09T13:49:11.030Z,95741.75
2022-12-09T13:51:51.702Z,95734.63
2022-12-09T13:54:20.622Z,95732.38
2022-12-09T13:57:13.035Z,95717.69
2022-12-09T13:59:56.438Z,95697.94
2022-12-09T14:02:42.839Z,95688.09
2022-12-09T14:05:14.210Z,95678.03
2022-12-09T14:07:59.706Z,95668.94
2022-12-09T14:10:40.894Z,95664.94
2022-12-09T14:13:22.637Z,95657.91
2022-12-09T14:16:13.789Z,95657.63
2022-12-09T14:18:41.416Z,95643.41
2022-12-09T14:21:20.139Z,95641.41
2022-12-09T14:24:09.128Z,95643.28
2022-12-09T14:26:44.968Z,95639.88
2022-12-09T14:29:12.512Z,95645.66
2022-12-09T14:32:02.400Z,95636.75
2022-12-09T14:34:38.564Z,95632.97
2022-12-09T14:37:33.192Z,95628.22
2022-12-09T14:40:10.839Z,95613.06
2022-12-09T14:42:50.639Z,95620.06
2022-12-09T14:45:17.324Z,95622.16
2022-12-09T14:47:46.623Z,95622.22
2022-12-09T14:50:18.174Z,95626.97
2022-12-09T14:52:55.504Z,95620.78
2022-12-09T14:55:25.529Z,95626.97
2022-12-09T14:57:53.619Z,95624.09
2022-12-09T15:00:40.976Z,95634.56
2022-12-09T15:03:33.195Z,95636.31
2022-12-09T15:06:06.153Z,95624.03
2022-12-09T15:08:38.913Z,95621.91
2022-12-09T15:11:11.679Z,95627.75
2022-12-09T15:13:42.088Z,95622.09
2022-12-09T15:16:18.251Z,95627.66
2022-12-09T15:18:46.173Z,95624.63
2022-12-09T15:21:30.122Z,95620.72
2022-12-09T15:23:57.607Z,95617.66
2022-12-09T15:26:29.012Z,95602.47
2022-12-09T15:28:57.410Z,95601.72
2022-12-09T15:31:27.104Z,95597.66
2022-12-09T15:33:56.682Z,95598.00
2022-12-09T15:36:41.630Z,95599.03
2022-12-09T15:39:20.044Z,95593.25
2022-12-09T15:42:10.083Z,95595.59
2022-12-09T15:44:51.820Z,95602.25
2022-12-09T15:47:28.379Z,95603.38
2022-12-09T15:50:18.471Z,95607.22
2022-12-09T15:52:52.300Z,95600.13
2022-12-09T15:55:26.122Z,95607.28
2022-12-09T15:57:55.412Z,95601.97
2022-12-09T16:00:22.957Z,95602.31
2022-12-09T16:02:50.848Z,95602.13
2022-12-09T16:05:24.591Z,95603.97
2022-12-09T16:07:52.578Z,95600.56
2022-12-09T16:10:19.825Z,95612.31
2022-12-09T16:12:46.645Z,95606.63
2022-12-09T16:15:34.684Z,95608.22
2022-12-09T16:18:03.062Z,95613.56
2022-12-09T16:20:39.174Z,95616.03
2022-12-09T16:23:21.007Z,95615.47
2022-12-09T16:25:50.199Z,95611.13
2022-12-09T16:28:23.581Z,95621.81
2022-12-09T16:30:53.135Z,95626.59
2022-12-09T16:33:24.337Z,95625.28
2022-12-09T16:36:03.971Z,95620.50
2022-12-09T16:38:35.486Z,95615.69
2022-12-09T16:41:03.870Z,95617.63
2022-12-09T16:43:31.045Z,95615.63
2022-12-09T16:46:22.963Z,95619.09
2022-12-09T16:48:50.010Z,95618.88
2022-12-09T16:51:24.528Z,95616.53
2022-12-09T16:53:53.618Z,95623.44
2022-12-09T16:56:26.279Z,95621.09
2022-12-09T16:58:54.568Z,95619.97
2022-12-09T17:01:25.735Z,95619.44
2022-12-09T17:04:01.036Z,95611.66
2022-12-09T17:06:28.674Z,95626.97
2022-12-09T17:08:55.777Z,95628.97
2022-12-09T17:11:22.785Z,95627.88
2022-12-09T17:13:50.322Z,95629.59
2022-12-09T17:16:17.371Z,95643.59
2022-12-09T17:18:44.339Z,95642.59
2022-12-09T17:21:13.569Z,95643.84
2022-12-09T17:23:41.421Z,95649.69
2022-12-09T17:26:10.698Z,95656.59
2022-12-09T17:28:38.771Z,95658.38
2022-12-09T17:31:11.228Z,95658.66
2022-12-09T17:33:38.649Z,95663.47
2022-12-09T17:36:07.448Z,95678.34
2022-12-09T17:38:34.371Z,95677.03
2022-12-09T17:41:06.028Z,95678.03
2022-12-09T17:43:33.010Z,95689.31
2022-12-09T17:46:01.344Z,95684.44
2022-12-09T17:48:29.697Z,95690.59
2022-12-09T17:50:56.703Z,95694.66
2022-12-09T17:53:23.847Z,95694.66
2022-12-09T17:55:50.570Z,95706.41
2022-12-09T17:58:17.416Z,95697.22
2022-12-09T18:00:44.388Z,95700.31
2022-12-09T18:03:17.885Z,95709.56
2022-12-09T18:05:49.062Z,95719.56
2022-12-09T18:08:15.783Z,95724.94
2022-12-09T18:10:44.245Z,95728.59
2022-12-09T18:13:11.093Z,95732.19
2022-12-09T18:15:37.769Z,95727.63
2022-12-09T18:18:04.805Z,95741.69
2022-12-09T18:20:31.508Z,95741.19
2022-12-09T18:22:58.224Z,95738.69
2022-12-09T18:25:24.927Z,95736.13
2022-12-09T18:27:51.609Z,95734.88
2022-12-09T18:30:18.397Z,95739.75
2022-12-09T18:32:45.116Z,95737.59
2022-12-09T18:35:11.812Z,95737.59
2022-12-09T18:37:38.510Z,95751.75
2022-12-09T18:40:06.346Z,95747.94
2022-12-09T18:42:33.192Z,95750.00
2022-12-09T18:44:59.882Z,95749.50
2022-12-09T18:47:26.612Z,95747.94
2022-12-09T18:49:53.560Z,95745.94
2022-12-09T18:52:20.474Z,95750.03
2022-12-09T18:54:47.897Z,95743.94
2022-12-09T18:57:14.681Z,95746.53
2022-12-09T18:59:41.393Z,95754.72
2022-12-09T19:02:10.619Z,95752.72
2022-12-09T19:04:37.780Z,95753.50
2022-12-09T19:07:04.565Z,95739.53
2022-12-09T19:09:34.849Z,95737.44
2022-12-09T19:12:22.935Z,95742.84
2022-12-09T19:14:50.424Z,95741.78
2022-12-09T19:17:18.844Z,95747.19
2022-12-09T19:19:47.319Z,95749.03
2022-12-09T19:22:14.765Z,95752.34
2022-12-09T19:24:43.414Z,95748.28
2022-12-09T19:27:10.767Z,95754.91
2022-12-09T19:29:37.593Z,95756.22
2022-12-09T19:32:13.868Z,95759.56
2022-12-09T19:34:50.588Z,95763.91
2022-12-09T19:37:17.368Z,95764.16
2022-12-09T19:39:45.129Z,95755.78
2022-12-09T19:42:11.929Z,95759.38
2022-12-09T19:45:00.452Z,95767.84
2022-12-09T19:47:25.492Z,95763.97
2022-12-09T19:49:52.146Z,95769.34
2022-12-09T19:52:19.044Z,95769.66
2022-12-09T19:54:45.860Z,95771.22
2022-12-09T19:57:12.878Z,95769.44
2022-12-09T19:59:39.679Z,95769.72
2022-12-09T20:02:11.908Z,95762.63
2022-12-09T20:04:48.720Z,95758.06
2022-12-09T20:07:15.797Z,95767.25
2022-12-09T20:09:42.462Z,95759.03
2022-12-09T20:12:09.166Z,95760.09
2022-12-09T20:14:35.970Z,95758.56
2022-12-09T20:17:02.717Z,95761.66
2022-12-09T20:19:29.501Z,95753.50
2022-12-09T20:21:56.231Z,95757.53
2022-12-09T20:24:23.235Z,95754.25
2022-12-09T20:26:50.116Z,95752.16
2022-12-09T20:29:16.839Z,95749.34
2022-12-09T20:31:43.646Z,95740.44
2022-12-09T20:34:16.666Z,95744.50
2022-12-09T20:36:45.088Z,95756.25
2022-12-09T20:39:15.279Z,95748.59
2022-12-09T20:41:42.919Z,95751.84
2022-12-09T20:44:10.646Z,95751.38
2022-12-09T20:46:39.536Z,95749.59
2022-12-09T20:49:06.299Z,95741.97
2022-12-09T20:51:36.156Z,95747.03
2022-12-09T20:54:05.208Z,95748.53
2022-12-09T20:56:33.351Z,95749.81
2022-12-09T20:59:00.573Z,95749.06
2022-12-09T21:01:30.724Z,95748.09
2022-12-09T21:03:58.611Z,95750.78
2022-12-09T21:06:29.583Z,95751.81
2022-12-09T21:08:59.375Z,95752.09
2022-12-09T21:11:26.432Z,95753.88
2022-12-09T21:13:57.798Z,95756.41
2022-12-09T21:16:33.713Z,95755.44
2022-12-09T21:19:05.262Z,95754.16
2022-12-09T21:21:34.569Z,95753.13
2022-12-09T21:24:01.724Z,95752.34
2022-12-09T21:26:29.187Z,95752.09
2022-12-09T21:28:58.880Z,95755.19
2022-12-09T21:31:31.905Z,95749.34
2022-12-09T21:34:03.698Z,95746.53
2022-12-09T21:36:36.173Z,95742.91
2022-12-09T21:39:04.945Z,95753.19
2022-12-09T21:41:34.264Z,95749.09
2022-12-09T21:44:01.098Z,95747.81
2022-12-09T21:46:30.756Z,95755.94
2022-12-09T21:49:03.575Z,95758.47
2022-12-09T21:51:31.321Z,95756.94
2022-12-09T21:53:58.258Z,95760.06
2022-12-09T21:56:27.872Z,95764.91
2022-12-09T21:58:56.862Z,95764.66
2022-12-09T22:01:32.128Z,95764.44
2022-12-09T22:04:00.948Z,95767.84
2022-12-09T22:06:29.051Z,95773.44
2022-12-09T22:08:58.727Z,95779.53
2022-12-09T22:11:28.533Z,95771.13
2022-12-09T22:14:00.168Z,95773.97
2022-12-09T22:16:31.113Z,95773.97
2022-12-09T22:18:59.816Z,95786.41
2022-12-09T22:21:29.184Z,95784.13
2022-12-09T22:24:02.822Z,95787.44
2022-12-09T22:26:29.935Z,95777.00
2022-12-09T22:28:59.337Z,95775.97
2022-12-09T22:31:31.839Z,95776.75
2022-12-09T22:34:08.102Z,95786.69
2022-12-09T22:36:37.095Z,95782.59
2022-12-09T22:39:06.978Z,95783.59
2022-12-09T22:41:34.811Z,95774.19
2022-12-09T22:44:01.730Z,95780.28
2022-12-09T22:46:30.971Z,95774.16
2022-12-09T22:49:01.037Z,95778.47
2022-12-09T22:51:30.245Z,95772.06
2022-12-09T22:53:58.066Z,95773.06
2022-12-09T22:56:26.086Z,95779.19
2022-12-09T22:58:53.398Z,95777.41
2022-12-09T23:01:26.385Z,95791.66
2022-12-09T23:03:55.063Z,95782.75
2022-12-09T23:06:22.517Z,95787.09
2022-12-09T23:08:49.262Z,95786.81
2022-12-09T23:11:18.729Z,95793.16
2022-12-09T23:13:45.684Z,95792.41
2022-12-09T23:16:20.461Z,95793.16
2022-12-09T23:18:47.717Z,95795.94
2022-12-09T23:21:20.924Z,95790.13
2022-12-09T23:23:48.031Z,95783.72
2022-12-09T23:26:17.681Z,95774.72
2022-12-09T23:28:50.228Z,95779.38
2022-12-09T23:31:19.835Z,95782.19
2022-12-09T23:33:48.826Z,95789.81
2022-12-09T23:36:19.184Z,95785.22
2022-12-09T23:38:48.444Z,95781.84
2022-12-09T23:41:17.545Z,95779.84
2022-12-09T23:43:45.675Z,95785.75
2022-12-09T23:46:16.264Z,95787.50
2022-12-09T23:48:44.619Z,95783.13
2022-12-09T23:51:21.226Z,95775.56
2022-12-09T23:53:49.691Z,95780.63
2022-12-09T23:56:19.731Z,95775.19
2022-12-09T23:58:47.311Z,95782.59
